Watson, New York
Current Conditions -  °F | °C
As of 10:21 PM on Monday 20 Oct 2014 (Local Time) from KGTB Reporting Station
Drizzle Drizzle  
Wind Chill: 42°   Ceiling: 4600
Heat Index: 46°   Visibility: 10mi
Dew Point: 41°   Wind: 8mph
Humidity: 81%   Direction: 140°SE
Pressure: 29.86"   Gusts: NA
Location:  43.7565°N, 75.5938°W
Report Text: KGTB 210221Z AUTO 14007KT 10SM -DZ FEW038 OVC046 08/05 A2986 RMK AO2 DZB0221
Loading
Personal Weather Stations






























Interactive Weather Map
Tropical Storm Tracking
New forecast layout! Learn more

10-Day Weather Forecast

Advertisements
Track Severe Weather on mobile